FIN4DR EFHK-ELLX
Flight info
| Callsign | FIN4DR |
|---|---|
| Flight time | 2h 30m |
| Altitude | 36000 |
| Route | VALOX DCT DANKA DCT ROSAX DCT LEMSI DCT PIMEX P739 DEREX DCT KOLJA DCT GOSOT/N0454F380 DCT BANUB DCT GARLU DCT XAROL/N0447F370 N850 GISEM/N0393F240 Z10 RUDUS Z656 IDOVI T894 BITBU Z110 BETEX |
| Aircraft | A319/M-SDE3FGHIRWY/LB1 |
Departure
| Time | 2026-05-07 11:18 |
|---|---|
| Airport | Helsinki Vantaa Airport (EFHK) |
Arrival
| Time | 2026-05-07 13:48 |
|---|---|
| Airport | Luxembourg-Findel International Airport (ELLX) |
| Time | Latitude | Longitude | Altitude | Speed | Heading |
|---|---|---|---|---|---|
| 2026-05-07 10:48 | 60.31964 | 24.96740 | 167 ft | 0 kts | 174° |
| 2026-05-07 11:07 | 60.31977 | 24.96737 | 166 ft | 4 kts | 171° |
| 2026-05-07 11:07 | 60.32003 | 24.96724 | 166 ft | 4 kts | 153° |
| 2026-05-07 11:07 | 60.32016 | 24.96706 | 166 ft | 4 kts | 118° |
| 2026-05-07 11:08 | 60.32018 | 24.96683 | 166 ft | 0 kts | 47° |
| 2026-05-07 11:11 | 60.32019 | 24.96683 | 166 ft | 0 kts | 47° |
| 2026-05-07 11:11 | 60.32027 | 24.96701 | 166 ft | 3 kts | 47° |
| 2026-05-07 11:11 | 60.32049 | 24.96750 | 166 ft | 6 kts | 47° |
| 2026-05-07 11:11 | 60.32085 | 24.96831 | 166 ft | 10 kts | 47° |
| 2026-05-07 11:12 | 60.32147 | 24.96852 | 166 ft | 10 kts | 328° |
| 2026-05-07 11:12 | 60.32212 | 24.96774 | 166 ft | 12 kts | 330° |
| 2026-05-07 11:12 | 60.32294 | 24.96679 | 167 ft | 14 kts | 330° |
| 2026-05-07 11:12 | 60.32376 | 24.96584 | 174 ft | 12 kts | 330° |
| 2026-05-07 11:13 | 60.32455 | 24.96491 | 174 ft | 16 kts | 330° |
| 2026-05-07 11:13 | 60.32561 | 24.96368 | 173 ft | 19 kts | 330° |
| 2026-05-07 11:13 | 60.32690 | 24.96218 | 172 ft | 23 kts | 330° |
| 2026-05-07 11:13 | 60.32839 | 24.96046 | 174 ft | 26 kts | 329° |
| 2026-05-07 11:14 | 60.32987 | 24.95869 | 179 ft | 23 kts | 329° |
| 2026-05-07 11:14 | 60.33114 | 24.95696 | 180 ft | 22 kts | 319° |
| 2026-05-07 11:14 | 60.33204 | 24.95500 | 182 ft | 16 kts | 294° |
| 2026-05-07 11:14 | 60.33168 | 24.95303 | 179 ft | 17 kts | 230° |
| 2026-05-07 11:15 | 60.33109 | 24.95084 | 178 ft | 18 kts | 261° |
| 2026-05-07 11:15 | 60.33112 | 24.94843 | 180 ft | 16 kts | 272° |
| 2026-05-07 11:15 | 60.33115 | 24.94731 | 182 ft | 0 kts | 272° |
| 2026-05-07 11:16 | 60.33115 | 24.94714 | 183 ft | 4 kts | 272° |
| 2026-05-07 11:16 | 60.33118 | 24.94624 | 194 ft | 9 kts | 272° |
| 2026-05-07 11:17 | 60.33121 | 24.94466 | 190 ft | 14 kts | 270° |
| 2026-05-07 11:17 | 60.33063 | 24.94281 | 198 ft | 20 kts | 228° |
| 2026-05-07 11:17 | 60.32815 | 24.93732 | 181 ft | 90 kts | 227° |
| 2026-05-07 11:17 | 60.32251 | 24.92497 | 169 ft | 151 kts | 227° |
| 2026-05-07 11:18 | 60.31487 | 24.90810 | 640 ft | 157 kts | 225° |
| 2026-05-07 11:18 | 60.30773 | 24.89240 | 1449 ft | 148 kts | 225° |
| 2026-05-07 11:18 | 60.30186 | 24.87475 | 1965 ft | 160 kts | 243° |
| 2026-05-07 11:18 | 60.29858 | 24.85175 | 2337 ft | 182 kts | 263° |
| 2026-05-07 11:19 | 60.29914 | 24.82492 | 2704 ft | 203 kts | 282° |
| 2026-05-07 11:19 | 60.30269 | 24.79540 | 3019 ft | 231 kts | 278° |
| 2026-05-07 11:19 | 60.30105 | 24.76189 | 3468 ft | 253 kts | 250° |
| 2026-05-07 11:19 | 60.29438 | 24.72856 | 4319 ft | 260 kts | 248° |
| 2026-05-07 11:20 | 60.28735 | 24.69456 | 5283 ft | 265 kts | 248° |
| 2026-05-07 11:20 | 60.28018 | 24.66007 | 6256 ft | 269 kts | 248° |
| 2026-05-07 11:20 | 60.27292 | 24.62516 | 7204 ft | 271 kts | 249° |
| 2026-05-07 11:20 | 60.26565 | 24.59000 | 8142 ft | 273 kts | 249° |
| 2026-05-07 11:21 | 60.25835 | 24.55458 | 9132 ft | 275 kts | 248° |
| 2026-05-07 11:21 | 60.24992 | 24.51987 | 10003 ft | 279 kts | 237° |
| 2026-05-07 11:21 | 60.23730 | 24.49072 | 10834 ft | 283 kts | 222° |
| 2026-05-07 11:21 | 60.22032 | 24.46822 | 11205 ft | 306 kts | 206° |
| 2026-05-07 11:22 | 60.19950 | 24.45343 | 11618 ft | 324 kts | 200° |
| 2026-05-07 11:22 | 60.17789 | 24.43907 | 12365 ft | 329 kts | 200° |
| 2026-05-07 11:22 | 60.15605 | 24.42441 | 13175 ft | 332 kts | 201° |
| 2026-05-07 11:22 | 60.13406 | 24.40950 | 13978 ft | 335 kts | 202° |
| 2026-05-07 11:23 | 60.11192 | 24.39438 | 14711 ft | 337 kts | 202° |
| 2026-05-07 11:23 | 60.08968 | 24.37919 | 15442 ft | 339 kts | 202° |
| 2026-05-07 11:23 | 60.06727 | 24.36393 | 16172 ft | 341 kts | 202° |
| 2026-05-07 11:23 | 60.04473 | 24.34861 | 16893 ft | 343 kts | 202° |
| 2026-05-07 11:24 | 60.02206 | 24.33323 | 17603 ft | 345 kts | 202° |
| 2026-05-07 11:24 | 59.99920 | 24.31774 | 18317 ft | 348 kts | 203° |
| 2026-05-07 11:24 | 59.97622 | 24.30221 | 18912 ft | 350 kts | 203° |
| 2026-05-07 11:24 | 59.95309 | 24.28663 | 19520 ft | 352 kts | 203° |
| 2026-05-07 11:25 | 59.92986 | 24.27102 | 20148 ft | 353 kts | 203° |
| 2026-05-07 11:25 | 59.90648 | 24.25536 | 20782 ft | 355 kts | 203° |
| 2026-05-07 11:25 | 59.88303 | 24.23969 | 21410 ft | 356 kts | 203° |
| 2026-05-07 11:25 | 59.85951 | 24.22400 | 22035 ft | 358 kts | 204° |
| 2026-05-07 11:26 | 59.83587 | 24.20821 | 22650 ft | 359 kts | 204° |
| 2026-05-07 11:26 | 59.81213 | 24.19236 | 23244 ft | 361 kts | 204° |
| 2026-05-07 11:26 | 59.78827 | 24.17646 | 23786 ft | 362 kts | 204° |
| 2026-05-07 11:26 | 59.76428 | 24.16056 | 24262 ft | 364 kts | 204° |
| 2026-05-07 11:27 | 59.74042 | 24.14387 | 24725 ft | 363 kts | 208° |
| 2026-05-07 11:27 | 59.71843 | 24.12013 | 25169 ft | 359 kts | 218° |
| 2026-05-07 11:27 | 59.69818 | 24.09126 | 25605 ft | 359 kts | 219° |
| 2026-05-07 11:27 | 59.67785 | 24.06230 | 26044 ft | 361 kts | 219° |
| 2026-05-07 11:28 | 59.65737 | 24.03334 | 26488 ft | 362 kts | 219° |
| 2026-05-07 11:28 | 59.63679 | 24.00443 | 26925 ft | 364 kts | 219° |
| 2026-05-07 11:28 | 59.61609 | 23.97543 | 27368 ft | 365 kts | 219° |
| 2026-05-07 11:28 | 59.59532 | 23.94631 | 27806 ft | 367 kts | 219° |
| 2026-05-07 11:29 | 59.57450 | 23.91705 | 28232 ft | 369 kts | 219° |
| 2026-05-07 11:29 | 59.55354 | 23.88762 | 28650 ft | 370 kts | 219° |
| 2026-05-07 11:29 | 59.53251 | 23.85812 | 29062 ft | 372 kts | 219° |
| 2026-05-07 11:29 | 59.51140 | 23.82850 | 29460 ft | 374 kts | 219° |
| 2026-05-07 11:30 | 59.49017 | 23.79876 | 29847 ft | 375 kts | 219° |
| 2026-05-07 11:30 | 59.47019 | 23.76601 | 30205 ft | 374 kts | 227° |
| 2026-05-07 11:30 | 59.45249 | 23.72844 | 30500 ft | 375 kts | 229° |
| 2026-05-07 11:30 | 59.43484 | 23.69049 | 30790 ft | 377 kts | 229° |
| 2026-05-07 11:31 | 59.41707 | 23.65233 | 31055 ft | 380 kts | 229° |
| 2026-05-07 11:31 | 59.39911 | 23.61400 | 31320 ft | 382 kts | 229° |
| 2026-05-07 11:31 | 59.38106 | 23.57555 | 31609 ft | 384 kts | 229° |
| 2026-05-07 11:31 | 59.36295 | 23.53707 | 31989 ft | 383 kts | 229° |
| 2026-05-07 11:32 | 59.32684 | 23.46044 | 32723 ft | 383 kts | 229° |
| 2026-05-07 11:32 | 59.30874 | 23.42220 | 33080 ft | 383 kts | 229° |
| 2026-05-07 11:32 | 59.29065 | 23.38399 | 33434 ft | 383 kts | 229° |
| 2026-05-07 11:33 | 59.27256 | 23.34581 | 33799 ft | 383 kts | 229° |
| 2026-05-07 11:33 | 59.25449 | 23.30765 | 34131 ft | 382 kts | 229° |
| 2026-05-07 11:33 | 59.23640 | 23.26945 | 34354 ft | 383 kts | 229° |
| 2026-05-07 11:33 | 59.21826 | 23.23121 | 34583 ft | 385 kts | 229° |
| 2026-05-07 11:34 | 59.20001 | 23.19291 | 34813 ft | 386 kts | 229° |
| 2026-05-07 11:34 | 59.18168 | 23.15461 | 35060 ft | 387 kts | 229° |
| 2026-05-07 11:34 | 59.16325 | 23.11627 | 35289 ft | 388 kts | 229° |
| 2026-05-07 11:34 | 59.14483 | 23.07791 | 35509 ft | 388 kts | 229° |
| 2026-05-07 11:35 | 59.12636 | 23.03935 | 35729 ft | 389 kts | 229° |
| 2026-05-07 11:35 | 59.10787 | 23.00077 | 35945 ft | 390 kts | 229° |
| 2026-05-07 11:35 | 59.08929 | 22.96220 | 36046 ft | 390 kts | 229° |
| 2026-05-07 11:36 | 59.05220 | 22.88588 | 36079 ft | 387 kts | 229° |
| 2026-05-07 11:36 | 59.01529 | 22.80988 | 36058 ft | 387 kts | 229° |
| 2026-05-07 11:37 | 58.97834 | 22.73391 | 36084 ft | 387 kts | 229° |
| 2026-05-07 11:37 | 58.94130 | 22.65808 | 36084 ft | 387 kts | 229° |
| 2026-05-07 11:38 | 58.90430 | 22.58231 | 36078 ft | 387 kts | 229° |
| 2026-05-07 11:38 | 58.86735 | 22.50672 | 36072 ft | 387 kts | 229° |
| 2026-05-07 11:39 | 58.83016 | 22.43146 | 36060 ft | 387 kts | 228° |
| 2026-05-07 11:39 | 58.79298 | 22.35634 | 36037 ft | 387 kts | 228° |
| 2026-05-07 11:40 | 58.75598 | 22.28194 | 36043 ft | 387 kts | 228° |
| 2026-05-07 11:40 | 58.71845 | 22.20647 | 36048 ft | 388 kts | 228° |
| 2026-05-07 11:41 | 58.68138 | 22.13210 | 36055 ft | 388 kts | 228° |
| 2026-05-07 11:41 | 58.64395 | 22.05741 | 36058 ft | 388 kts | 228° |
| 2026-05-07 11:42 | 58.60648 | 21.98292 | 36057 ft | 388 kts | 228° |
| 2026-05-07 11:42 | 58.56896 | 21.90861 | 36029 ft | 388 kts | 228° |
| 2026-05-07 11:43 | 58.53137 | 21.83429 | 36041 ft | 388 kts | 228° |
| 2026-05-07 11:43 | 58.49371 | 21.76014 | 36048 ft | 389 kts | 228° |
| 2026-05-07 11:44 | 58.45598 | 21.68618 | 36056 ft | 389 kts | 228° |
| 2026-05-07 11:44 | 58.41823 | 21.61229 | 36084 ft | 389 kts | 228° |
| 2026-05-07 11:45 | 58.38042 | 21.53851 | 36079 ft | 389 kts | 227° |
| 2026-05-07 11:45 | 58.34248 | 21.46482 | 36050 ft | 390 kts | 227° |
| 2026-05-07 11:46 | 58.30450 | 21.39131 | 36053 ft | 390 kts | 227° |
| 2026-05-07 11:46 | 58.26641 | 21.31784 | 36057 ft | 390 kts | 227° |
| 2026-05-07 11:47 | 58.22826 | 21.24449 | 36058 ft | 390 kts | 227° |
| 2026-05-07 11:47 | 58.19007 | 21.17120 | 36061 ft | 391 kts | 227° |
| 2026-05-07 11:48 | 58.15163 | 21.09839 | 36068 ft | 391 kts | 227° |
| 2026-05-07 11:48 | 58.11312 | 21.02584 | 36043 ft | 391 kts | 227° |
| 2026-05-07 11:49 | 58.07455 | 20.95331 | 36055 ft | 391 kts | 227° |
| 2026-05-07 11:49 | 58.03592 | 20.88093 | 36061 ft | 391 kts | 227° |
| 2026-05-07 11:50 | 57.99727 | 20.80854 | 36068 ft | 391 kts | 227° |
| 2026-05-07 11:50 | 57.95855 | 20.73640 | 36073 ft | 392 kts | 227° |
| 2026-05-07 11:51 | 57.91974 | 20.66432 | 36079 ft | 392 kts | 226° |
| 2026-05-07 11:51 | 57.88088 | 20.59247 | 36058 ft | 392 kts | 226° |
| 2026-05-07 11:52 | 57.84859 | 20.53284 | 36064 ft | 392 kts | 226° |
| 2026-05-07 11:52 | 57.80337 | 20.44960 | 36097 ft | 392 kts | 226° |
| 2026-05-07 11:53 | 57.76439 | 20.37806 | 36089 ft | 392 kts | 226° |
| 2026-05-07 11:53 | 57.73166 | 20.31818 | 36080 ft | 393 kts | 226° |
| 2026-05-07 11:54 | 57.69252 | 20.24677 | 36079 ft | 393 kts | 226° |
| 2026-05-07 11:54 | 57.65539 | 20.17299 | 36063 ft | 392 kts | 231° |
| 2026-05-07 11:55 | 57.61989 | 20.09553 | 36064 ft | 393 kts | 231° |
| 2026-05-07 11:55 | 57.58424 | 20.01830 | 36072 ft | 393 kts | 231° |
| 2026-05-07 11:56 | 57.54852 | 19.94115 | 36073 ft | 393 kts | 231° |
| 2026-05-07 11:56 | 57.51278 | 19.86402 | 36076 ft | 393 kts | 231° |
| 2026-05-07 11:57 | 57.47702 | 19.78707 | 36078 ft | 393 kts | 231° |
| 2026-05-07 11:57 | 57.44116 | 19.71027 | 36055 ft | 394 kts | 230° |
| 2026-05-07 11:58 | 57.40522 | 19.63352 | 36068 ft | 394 kts | 230° |
| 2026-05-07 11:58 | 57.36923 | 19.55689 | 36075 ft | 394 kts | 230° |
| 2026-05-07 11:59 | 57.33319 | 19.48046 | 36086 ft | 394 kts | 230° |
| 2026-05-07 11:59 | 57.29711 | 19.40420 | 36108 ft | 394 kts | 230° |
| 2026-05-07 12:00 | 57.26088 | 19.32798 | 36091 ft | 395 kts | 231° |
| 2026-05-07 12:00 | 57.22486 | 19.25234 | 36088 ft | 395 kts | 230° |
| 2026-05-07 12:01 | 57.18827 | 19.17579 | 36084 ft | 395 kts | 230° |
| 2026-05-07 12:01 | 57.15210 | 19.10031 | 36082 ft | 396 kts | 230° |
| 2026-05-07 12:02 | 57.11564 | 19.02434 | 36083 ft | 396 kts | 230° |
| 2026-05-07 12:02 | 57.07909 | 18.94855 | 36086 ft | 396 kts | 230° |
| 2026-05-07 12:03 | 57.04253 | 18.87286 | 36065 ft | 396 kts | 230° |
| 2026-05-07 12:03 | 57.00580 | 18.79729 | 36069 ft | 397 kts | 230° |
| 2026-05-07 12:04 | 56.96902 | 18.72189 | 36071 ft | 397 kts | 230° |
| 2026-05-07 12:04 | 56.93223 | 18.64650 | 36072 ft | 397 kts | 230° |
| 2026-05-07 12:05 | 56.89533 | 18.57129 | 36084 ft | 397 kts | 229° |
| 2026-05-07 12:05 | 56.85838 | 18.49620 | 36090 ft | 397 kts | 229° |
| 2026-05-07 12:06 | 56.82143 | 18.42111 | 36086 ft | 397 kts | 229° |
| 2026-05-07 12:06 | 56.78435 | 18.34617 | 36073 ft | 398 kts | 229° |
| 2026-05-07 12:07 | 56.74707 | 18.27125 | 36074 ft | 399 kts | 229° |
| 2026-05-07 12:07 | 56.70973 | 18.19623 | 36082 ft | 400 kts | 229° |
| 2026-05-07 12:08 | 56.67232 | 18.12132 | 36078 ft | 400 kts | 229° |
| 2026-05-07 12:08 | 56.63481 | 18.04652 | 36089 ft | 400 kts | 229° |
| 2026-05-07 12:09 | 56.59723 | 17.97180 | 36064 ft | 401 kts | 229° |
| 2026-05-07 12:09 | 56.55958 | 17.89718 | 36072 ft | 401 kts | 229° |
| 2026-05-07 12:10 | 56.52187 | 17.82255 | 36081 ft | 401 kts | 229° |
| 2026-05-07 12:10 | 56.48410 | 17.74818 | 36087 ft | 401 kts | 229° |
| 2026-05-07 12:11 | 56.44650 | 17.67443 | 36085 ft | 401 kts | 228° |
| 2026-05-07 12:11 | 56.40841 | 17.59980 | 36082 ft | 402 kts | 229° |
| 2026-05-07 12:12 | 56.37047 | 17.52574 | 36070 ft | 401 kts | 228° |
| 2026-05-07 12:12 | 56.33250 | 17.45193 | 36099 ft | 402 kts | 228° |
| 2026-05-07 12:13 | 56.29436 | 17.37800 | 36078 ft | 403 kts | 228° |
| 2026-05-07 12:13 | 56.25636 | 17.30453 | 36077 ft | 404 kts | 228° |
| 2026-05-07 12:14 | 56.21800 | 17.23055 | 36080 ft | 405 kts | 228° |
| 2026-05-07 12:14 | 56.17962 | 17.15662 | 36065 ft | 405 kts | 228° |
| 2026-05-07 12:15 | 56.14114 | 17.08288 | 36071 ft | 405 kts | 227° |
| 2026-05-07 12:15 | 56.10252 | 17.00918 | 36076 ft | 406 kts | 227° |
| 2026-05-07 12:16 | 56.06382 | 16.93561 | 36080 ft | 406 kts | 227° |
| 2026-05-07 12:16 | 56.02505 | 16.86213 | 36081 ft | 406 kts | 227° |
| 2026-05-07 12:17 | 55.98596 | 16.78923 | 36086 ft | 406 kts | 226° |
| 2026-05-07 12:17 | 55.94520 | 16.71923 | 36073 ft | 407 kts | 224° |
| 2026-05-07 12:18 | 55.90382 | 16.65042 | 36078 ft | 407 kts | 224° |
| 2026-05-07 12:18 | 55.86265 | 16.58128 | 36084 ft | 407 kts | 224° |
| 2026-05-07 12:19 | 55.82168 | 16.51183 | 36094 ft | 407 kts | 224° |
| 2026-05-07 12:19 | 55.78072 | 16.44246 | 36094 ft | 407 kts | 224° |
| 2026-05-07 12:20 | 55.73964 | 16.37340 | 36080 ft | 407 kts | 224° |
| 2026-05-07 12:20 | 55.69849 | 16.30460 | 36091 ft | 406 kts | 224° |
| 2026-05-07 12:21 | 55.65733 | 16.23588 | 36093 ft | 406 kts | 224° |
| 2026-05-07 12:21 | 55.61621 | 16.16728 | 36090 ft | 406 kts | 224° |
| 2026-05-07 12:22 | 55.57506 | 16.09886 | 36088 ft | 406 kts | 224° |
| 2026-05-07 12:22 | 55.53383 | 16.03066 | 36087 ft | 406 kts | 224° |
| 2026-05-07 12:23 | 55.49281 | 15.96302 | 36083 ft | 406 kts | 223° |
| 2026-05-07 12:23 | 55.45147 | 15.89505 | 36084 ft | 407 kts | 223° |
| 2026-05-07 12:24 | 55.40981 | 15.82667 | 36088 ft | 407 kts | 223° |
| 2026-05-07 12:24 | 55.36834 | 15.75878 | 36100 ft | 407 kts | 223° |
| 2026-05-07 12:25 | 55.32678 | 15.69103 | 36107 ft | 407 kts | 223° |
| 2026-05-07 12:25 | 55.28522 | 15.62345 | 36100 ft | 407 kts | 223° |
| 2026-05-07 12:26 | 55.24381 | 15.55637 | 36089 ft | 409 kts | 223° |
| 2026-05-07 12:26 | 55.20198 | 15.48875 | 36086 ft | 410 kts | 223° |
| 2026-05-07 12:27 | 55.16000 | 15.42107 | 36089 ft | 411 kts | 223° |
| 2026-05-07 12:27 | 55.11795 | 15.35342 | 36092 ft | 411 kts | 223° |
| 2026-05-07 12:28 | 55.07576 | 15.28584 | 36091 ft | 411 kts | 223° |
| 2026-05-07 12:28 | 55.03352 | 15.21846 | 36094 ft | 411 kts | 223° |
| 2026-05-07 12:29 | 54.99126 | 15.15117 | 36102 ft | 412 kts | 223° |
| 2026-05-07 12:29 | 54.94900 | 15.08407 | 36095 ft | 412 kts | 223° |
| 2026-05-07 12:30 | 54.90663 | 15.01711 | 36104 ft | 412 kts | 222° |
| 2026-05-07 12:30 | 54.86423 | 14.95021 | 36103 ft | 412 kts | 223° |
| 2026-05-07 12:31 | 54.82185 | 14.88342 | 36101 ft | 412 kts | 222° |
| 2026-05-07 12:31 | 54.77963 | 14.81634 | 36101 ft | 412 kts | 223° |
| 2026-05-07 12:32 | 54.73813 | 14.74774 | 36111 ft | 412 kts | 224° |
| 2026-05-07 12:32 | 54.69675 | 14.67901 | 36091 ft | 413 kts | 224° |
| 2026-05-07 12:33 | 54.63414 | 14.57635 | 36079 ft | 414 kts | 223° |
| 2026-05-07 12:33 | 54.59217 | 14.50812 | 36081 ft | 415 kts | 223° |
| 2026-05-07 12:34 | 54.55012 | 14.43982 | 36081 ft | 416 kts | 223° |
| 2026-05-07 12:34 | 54.50796 | 14.37157 | 36084 ft | 416 kts | 223° |
| 2026-05-07 12:35 | 54.46579 | 14.30331 | 36091 ft | 416 kts | 225° |
| 2026-05-07 12:35 | 54.42829 | 14.22739 | 36089 ft | 417 kts | 230° |
| 2026-05-07 12:36 | 54.39152 | 14.15115 | 36090 ft | 418 kts | 230° |
| 2026-05-07 12:36 | 54.35438 | 14.07460 | 36092 ft | 418 kts | 229° |
| 2026-05-07 12:37 | 54.31715 | 13.99822 | 36092 ft | 417 kts | 229° |
| 2026-05-07 12:37 | 54.27991 | 13.92188 | 36104 ft | 418 kts | 230° |
| 2026-05-07 12:38 | 54.24260 | 13.84550 | 36088 ft | 419 kts | 230° |
| 2026-05-07 12:38 | 54.20510 | 13.76919 | 36080 ft | 420 kts | 229° |
| 2026-05-07 12:39 | 54.16747 | 13.69272 | 36074 ft | 421 kts | 229° |
| 2026-05-07 12:39 | 54.12975 | 13.61627 | 36079 ft | 421 kts | 229° |
| 2026-05-07 12:40 | 54.09193 | 13.53995 | 36082 ft | 421 kts | 229° |
| 2026-05-07 12:40 | 54.05406 | 13.46383 | 36076 ft | 421 kts | 229° |
| 2026-05-07 12:41 | 54.02253 | 13.40065 | 36075 ft | 422 kts | 229° |
| 2026-05-07 12:41 | 53.98453 | 13.32471 | 36072 ft | 422 kts | 229° |
| 2026-05-07 12:42 | 53.94648 | 13.24876 | 36076 ft | 422 kts | 229° |
| 2026-05-07 12:42 | 53.90843 | 13.17291 | 36080 ft | 422 kts | 229° |
| 2026-05-07 12:43 | 53.87027 | 13.09724 | 36072 ft | 422 kts | 229° |
| 2026-05-07 12:43 | 53.83200 | 13.02171 | 36064 ft | 422 kts | 229° |
| 2026-05-07 12:44 | 53.79371 | 12.94622 | 36058 ft | 423 kts | 229° |
| 2026-05-07 12:44 | 53.75510 | 12.87028 | 36060 ft | 423 kts | 229° |
| 2026-05-07 12:45 | 53.71665 | 12.79500 | 36062 ft | 423 kts | 229° |
| 2026-05-07 12:45 | 53.67813 | 12.71980 | 36062 ft | 424 kts | 229° |
| 2026-05-07 12:46 | 53.63955 | 12.64467 | 36063 ft | 424 kts | 229° |
| 2026-05-07 12:46 | 53.60111 | 12.57025 | 36065 ft | 424 kts | 228° |
| 2026-05-07 12:47 | 53.56237 | 12.49544 | 36063 ft | 424 kts | 229° |
| 2026-05-07 12:47 | 53.52355 | 12.42049 | 36059 ft | 425 kts | 229° |
| 2026-05-07 12:48 | 53.48464 | 12.34564 | 36054 ft | 425 kts | 229° |
| 2026-05-07 12:48 | 53.44568 | 12.27090 | 36059 ft | 426 kts | 228° |
| 2026-05-07 12:49 | 53.40660 | 12.19610 | 36055 ft | 426 kts | 228° |
| 2026-05-07 12:49 | 53.36744 | 12.12150 | 36058 ft | 426 kts | 228° |
| 2026-05-07 12:50 | 53.32817 | 12.04694 | 36059 ft | 427 kts | 228° |
| 2026-05-07 12:50 | 53.28882 | 11.97251 | 36059 ft | 427 kts | 228° |
| 2026-05-07 12:51 | 53.24943 | 11.89820 | 36056 ft | 427 kts | 228° |
| 2026-05-07 12:51 | 53.20999 | 11.82374 | 36066 ft | 428 kts | 228° |
| 2026-05-07 12:52 | 53.17046 | 11.74947 | 36062 ft | 428 kts | 228° |
| 2026-05-07 12:52 | 53.13074 | 11.67536 | 36059 ft | 429 kts | 228° |
| 2026-05-07 12:53 | 53.09105 | 11.60134 | 36055 ft | 429 kts | 228° |
| 2026-05-07 12:53 | 53.05126 | 11.52730 | 36057 ft | 429 kts | 228° |
| 2026-05-07 12:54 | 53.01148 | 11.45340 | 36055 ft | 429 kts | 228° |
| 2026-05-07 12:54 | 52.97169 | 11.37966 | 36052 ft | 429 kts | 228° |
| 2026-05-07 12:55 | 52.93178 | 11.30612 | 36057 ft | 429 kts | 228° |
| 2026-05-07 12:55 | 52.89178 | 11.23268 | 36057 ft | 429 kts | 228° |
| 2026-05-07 12:56 | 52.85174 | 11.15941 | 36060 ft | 429 kts | 227° |
| 2026-05-07 12:56 | 52.80948 | 11.08991 | 36058 ft | 429 kts | 220° |
| 2026-05-07 12:57 | 52.76427 | 11.02551 | 36052 ft | 430 kts | 221° |
| 2026-05-07 12:57 | 52.71906 | 10.96093 | 36055 ft | 430 kts | 221° |
| 2026-05-07 12:58 | 52.67374 | 10.89647 | 36059 ft | 430 kts | 221° |
| 2026-05-07 12:58 | 52.62840 | 10.83228 | 36054 ft | 430 kts | 221° |
| 2026-05-07 12:59 | 52.58312 | 10.76819 | 36053 ft | 429 kts | 221° |
| 2026-05-07 12:59 | 52.53778 | 10.70423 | 36052 ft | 430 kts | 220° |
| 2026-05-07 13:00 | 52.49235 | 10.64053 | 36046 ft | 429 kts | 220° |
| 2026-05-07 13:00 | 52.44717 | 10.57733 | 36047 ft | 430 kts | 220° |
| 2026-05-07 13:01 | 52.40164 | 10.51372 | 36050 ft | 430 kts | 220° |
| 2026-05-07 13:01 | 52.35602 | 10.45016 | 36057 ft | 431 kts | 220° |
| 2026-05-07 13:02 | 52.31030 | 10.38670 | 36083 ft | 431 kts | 220° |
| 2026-05-07 13:02 | 52.26448 | 10.32338 | 36075 ft | 432 kts | 220° |
| 2026-05-07 13:03 | 52.21867 | 10.26004 | 36070 ft | 431 kts | 220° |
| 2026-05-07 13:03 | 52.17291 | 10.19684 | 36068 ft | 431 kts | 220° |
| 2026-05-07 13:04 | 52.12711 | 10.13392 | 36063 ft | 431 kts | 220° |
| 2026-05-07 13:04 | 52.08123 | 10.07111 | 36066 ft | 431 kts | 220° |
| 2026-05-07 13:05 | 52.03533 | 10.00834 | 36065 ft | 431 kts | 220° |
| 2026-05-07 13:05 | 51.98944 | 9.94578 | 36068 ft | 431 kts | 220° |
| 2026-05-07 13:06 | 51.94344 | 9.88346 | 36061 ft | 431 kts | 220° |
| 2026-05-07 13:06 | 51.89743 | 9.82107 | 36062 ft | 431 kts | 220° |
| 2026-05-07 13:07 | 51.85138 | 9.75886 | 36077 ft | 431 kts | 220° |
| 2026-05-07 13:07 | 51.80523 | 9.69677 | 36066 ft | 432 kts | 220° |
| 2026-05-07 13:08 | 51.75914 | 9.63476 | 36054 ft | 431 kts | 220° |
| 2026-05-07 13:08 | 51.71306 | 9.57286 | 36057 ft | 431 kts | 220° |
| 2026-05-07 13:09 | 51.66691 | 9.51114 | 36054 ft | 431 kts | 220° |
| 2026-05-07 13:09 | 51.62069 | 9.44957 | 36056 ft | 431 kts | 220° |
| 2026-05-07 13:10 | 51.57442 | 9.38823 | 36049 ft | 430 kts | 220° |
| 2026-05-07 13:10 | 51.52822 | 9.32704 | 36041 ft | 430 kts | 220° |
| 2026-05-07 13:11 | 51.48193 | 9.26592 | 36044 ft | 431 kts | 220° |
| 2026-05-07 13:11 | 51.43564 | 9.20494 | 36031 ft | 430 kts | 220° |
| 2026-05-07 13:12 | 51.38943 | 9.14411 | 36030 ft | 430 kts | 220° |
| 2026-05-07 13:12 | 51.34310 | 9.08355 | 36031 ft | 430 kts | 217° |
| 2026-05-07 13:13 | 51.29023 | 9.03921 | 36039 ft | 432 kts | 198° |
| 2026-05-07 13:13 | 51.23153 | 9.01792 | 36040 ft | 433 kts | 193° |
| 2026-05-07 13:14 | 51.17250 | 8.99815 | 36034 ft | 433 kts | 193° |
| 2026-05-07 13:14 | 51.11350 | 8.97830 | 36031 ft | 433 kts | 193° |
| 2026-05-07 13:15 | 51.05427 | 8.95988 | 36027 ft | 434 kts | 192° |
| 2026-05-07 13:15 | 50.99491 | 8.94141 | 36034 ft | 435 kts | 192° |
| 2026-05-07 13:16 | 50.93569 | 8.92185 | 36028 ft | 435 kts | 193° |
| 2026-05-07 13:16 | 50.87644 | 8.90198 | 36026 ft | 435 kts | 193° |
| 2026-05-07 13:17 | 50.81709 | 8.88242 | 36025 ft | 435 kts | 193° |
| 2026-05-07 13:17 | 50.75785 | 8.86224 | 36027 ft | 436 kts | 193° |
| 2026-05-07 13:18 | 50.69870 | 8.84150 | 36028 ft | 436 kts | 193° |
| 2026-05-07 13:18 | 50.63947 | 8.82066 | 36032 ft | 436 kts | 195° |
| 2026-05-07 13:19 | 50.58243 | 8.78900 | 36032 ft | 434 kts | 207° |
| 2026-05-07 13:19 | 50.53290 | 8.73470 | 36039 ft | 432 kts | 221° |
| 2026-05-07 13:20 | 50.48691 | 8.67394 | 36041 ft | 432 kts | 221° |
| 2026-05-07 13:20 | 50.44082 | 8.61355 | 36036 ft | 431 kts | 220° |
| 2026-05-07 13:21 | 50.39488 | 8.55344 | 36032 ft | 432 kts | 220° |
| 2026-05-07 13:21 | 50.34922 | 8.49194 | 36046 ft | 432 kts | 223° |
| 2026-05-07 13:22 | 50.30530 | 8.42781 | 36043 ft | 431 kts | 224° |
| 2026-05-07 13:22 | 50.26863 | 8.37409 | 36047 ft | 431 kts | 223° |
| 2026-05-07 13:23 | 50.22348 | 8.31245 | 36045 ft | 431 kts | 221° |
| 2026-05-07 13:23 | 50.17770 | 8.25196 | 36047 ft | 431 kts | 221° |
| 2026-05-07 13:24 | 50.13199 | 8.19143 | 36057 ft | 431 kts | 221° |
| 2026-05-07 13:24 | 50.08654 | 8.13062 | 36047 ft | 430 kts | 223° |
| 2026-05-07 13:25 | 50.04934 | 8.05854 | 35769 ft | 428 kts | 243° |
| 2026-05-07 13:25 | 50.03731 | 8.01629 | 35530 ft | 427 kts | 252° |
| 2026-05-07 13:25 | 50.02930 | 7.97185 | 35290 ft | 427 kts | 256° |
| 2026-05-07 13:26 | 50.02177 | 7.92717 | 35041 ft | 426 kts | 256° |
| 2026-05-07 13:26 | 50.01408 | 7.88280 | 34534 ft | 424 kts | 255° |
| 2026-05-07 13:26 | 50.00630 | 7.83871 | 33977 ft | 422 kts | 255° |
| 2026-05-07 13:26 | 49.99875 | 7.79476 | 33394 ft | 419 kts | 259° |
| 2026-05-07 13:27 | 49.99498 | 7.75027 | 32852 ft | 413 kts | 268° |
| 2026-05-07 13:27 | 49.99621 | 7.70597 | 32342 ft | 409 kts | 278° |
| 2026-05-07 13:27 | 50.00227 | 7.66314 | 31821 ft | 405 kts | 288° |
| 2026-05-07 13:27 | 50.01096 | 7.62172 | 31317 ft | 402 kts | 288° |
| 2026-05-07 13:28 | 50.01954 | 7.58055 | 30814 ft | 398 kts | 288° |
| 2026-05-07 13:28 | 50.02793 | 7.53972 | 30312 ft | 395 kts | 287° |
| 2026-05-07 13:28 | 50.03618 | 7.49910 | 29795 ft | 392 kts | 287° |
| 2026-05-07 13:28 | 50.04430 | 7.45894 | 29306 ft | 387 kts | 287° |
| 2026-05-07 13:29 | 50.05233 | 7.41928 | 28838 ft | 382 kts | 287° |
| 2026-05-07 13:29 | 50.06023 | 7.38005 | 28379 ft | 378 kts | 287° |
| 2026-05-07 13:29 | 50.06801 | 7.34126 | 27950 ft | 374 kts | 287° |
| 2026-05-07 13:29 | 50.07544 | 7.30269 | 27519 ft | 371 kts | 283° |
| 2026-05-07 13:30 | 50.07930 | 7.26325 | 27098 ft | 368 kts | 274° |
| 2026-05-07 13:30 | 50.08094 | 7.22368 | 26691 ft | 364 kts | 274° |
| 2026-05-07 13:30 | 50.08260 | 7.18449 | 26285 ft | 361 kts | 274° |
| 2026-05-07 13:30 | 50.08425 | 7.14592 | 25875 ft | 358 kts | 274° |
| 2026-05-07 13:31 | 50.08590 | 7.10720 | 25472 ft | 355 kts | 274° |
| 2026-05-07 13:31 | 50.08751 | 7.06900 | 25067 ft | 352 kts | 274° |
| 2026-05-07 13:31 | 50.08909 | 7.03115 | 24654 ft | 349 kts | 274° |
| 2026-05-07 13:31 | 50.09065 | 6.99356 | 24242 ft | 346 kts | 273° |
| 2026-05-07 13:32 | 50.09216 | 6.95632 | 23815 ft | 344 kts | 273° |
| 2026-05-07 13:32 | 50.09363 | 6.91923 | 23355 ft | 342 kts | 273° |
| 2026-05-07 13:32 | 50.09506 | 6.88238 | 22932 ft | 339 kts | 271° |
| 2026-05-07 13:32 | 50.09456 | 6.84630 | 22777 ft | 328 kts | 268° |
| 2026-05-07 13:33 | 50.09371 | 6.81139 | 22613 ft | 319 kts | 265° |
| 2026-05-07 13:33 | 50.09000 | 6.77704 | 21780 ft | 329 kts | 253° |
| 2026-05-07 13:33 | 50.08128 | 6.74381 | 21228 ft | 331 kts | 242° |
| 2026-05-07 13:33 | 50.06861 | 6.71405 | 20825 ft | 330 kts | 231° |
| 2026-05-07 13:34 | 50.05360 | 6.68720 | 20416 ft | 328 kts | 229° |
| 2026-05-07 13:34 | 50.02362 | 6.63402 | 19596 ft | 326 kts | 229° |
| 2026-05-07 13:34 | 50.00872 | 6.60755 | 19187 ft | 325 kts | 229° |
| 2026-05-07 13:35 | 49.99377 | 6.58112 | 18775 ft | 326 kts | 227° |
| 2026-05-07 13:35 | 49.97669 | 6.55805 | 18351 ft | 326 kts | 216° |
| 2026-05-07 13:35 | 49.95694 | 6.54050 | 17874 ft | 327 kts | 208° |
| 2026-05-07 13:35 | 49.93678 | 6.52429 | 17458 ft | 325 kts | 208° |
| 2026-05-07 13:36 | 49.91678 | 6.50802 | 17049 ft | 324 kts | 209° |
| 2026-05-07 13:36 | 49.89718 | 6.49194 | 16644 ft | 322 kts | 209° |
| 2026-05-07 13:36 | 49.87740 | 6.47571 | 16238 ft | 321 kts | 209° |
| 2026-05-07 13:36 | 49.85773 | 6.45936 | 15828 ft | 320 kts | 212° |
| 2026-05-07 13:37 | 49.84100 | 6.43714 | 15436 ft | 317 kts | 232° |
| 2026-05-07 13:37 | 49.83009 | 6.40787 | 15041 ft | 314 kts | 251° |
| 2026-05-07 13:37 | 49.82596 | 6.37489 | 14631 ft | 313 kts | 269° |
| 2026-05-07 13:37 | 49.82876 | 6.34158 | 14233 ft | 313 kts | 283° |
| 2026-05-07 13:38 | 49.83385 | 6.30883 | 13810 ft | 313 kts | 283° |
| 2026-05-07 13:38 | 49.83891 | 6.27606 | 13364 ft | 312 kts | 283° |
| 2026-05-07 13:38 | 49.84392 | 6.24341 | 12942 ft | 311 kts | 283° |
| 2026-05-07 13:38 | 49.84890 | 6.21090 | 12532 ft | 310 kts | 283° |
| 2026-05-07 13:39 | 49.85292 | 6.17775 | 12106 ft | 308 kts | 272° |
| 2026-05-07 13:39 | 49.84999 | 6.14555 | 11955 ft | 298 kts | 251° |
| 2026-05-07 13:39 | 49.84049 | 6.11761 | 11652 ft | 294 kts | 233° |
| 2026-05-07 13:39 | 49.82516 | 6.09664 | 11304 ft | 294 kts | 212° |
| 2026-05-07 13:40 | 49.80758 | 6.08065 | 10938 ft | 293 kts | 211° |
| 2026-05-07 13:40 | 49.79001 | 6.06473 | 10571 ft | 292 kts | 211° |
| 2026-05-07 13:40 | 49.77250 | 6.04884 | 10215 ft | 291 kts | 211° |
| 2026-05-07 13:40 | 49.75484 | 6.03283 | 9826 ft | 290 kts | 211° |
| 2026-05-07 13:41 | 49.73751 | 6.01711 | 9413 ft | 288 kts | 211° |
| 2026-05-07 13:41 | 49.72026 | 6.00144 | 9006 ft | 287 kts | 211° |
| 2026-05-07 13:41 | 49.70312 | 5.98586 | 8603 ft | 285 kts | 211° |
| 2026-05-07 13:41 | 49.68608 | 5.97034 | 8180 ft | 284 kts | 211° |
| 2026-05-07 13:42 | 49.66915 | 5.95496 | 7739 ft | 280 kts | 211° |
| 2026-05-07 13:42 | 49.65241 | 5.93980 | 7146 ft | 277 kts | 211° |
| 2026-05-07 13:42 | 49.63638 | 5.92534 | 7011 ft | 257 kts | 211° |
| 2026-05-07 13:42 | 49.62096 | 5.91282 | 6624 ft | 247 kts | 198° |
| 2026-05-07 13:43 | 49.60419 | 5.90934 | 6123 ft | 243 kts | 174° |
| 2026-05-07 13:43 | 49.58799 | 5.91629 | 5495 ft | 244 kts | 152° |
| 2026-05-07 13:43 | 49.57357 | 5.93024 | 4887 ft | 245 kts | 147° |
| 2026-05-07 13:43 | 49.55962 | 5.94417 | 4616 ft | 233 kts | 147° |
| 2026-05-07 13:44 | 49.54818 | 5.96069 | 4453 ft | 223 kts | 120° |
| 2026-05-07 13:44 | 49.54443 | 5.98340 | 4169 ft | 220 kts | 85° |
| 2026-05-07 13:44 | 49.54916 | 6.00521 | 3898 ft | 214 kts | 59° |
| 2026-05-07 13:44 | 49.55655 | 6.02469 | 3621 ft | 207 kts | 58° |
| 2026-05-07 13:45 | 49.56365 | 6.04338 | 3379 ft | 198 kts | 58° |
| 2026-05-07 13:45 | 49.57040 | 6.06137 | 3099 ft | 190 kts | 58° |
| 2026-05-07 13:45 | 49.57680 | 6.07848 | 2837 ft | 178 kts | 58° |
| 2026-05-07 13:45 | 49.58270 | 6.09425 | 2605 ft | 163 kts | 58° |
| 2026-05-07 13:46 | 49.58817 | 6.10887 | 2403 ft | 154 kts | 59° |
| 2026-05-07 13:46 | 49.59339 | 6.12282 | 2213 ft | 148 kts | 58° |
| 2026-05-07 13:46 | 49.59849 | 6.13654 | 1989 ft | 146 kts | 59° |
| 2026-05-07 13:46 | 49.60351 | 6.14997 | 1783 ft | 144 kts | 58° |
| 2026-05-07 13:47 | 49.60849 | 6.16327 | 1572 ft | 142 kts | 58° |
| 2026-05-07 13:47 | 49.61335 | 6.17632 | 1371 ft | 140 kts | 58° |
| 2026-05-07 13:47 | 49.61818 | 6.18931 | 1203 ft | 139 kts | 58° |
| 2026-05-07 13:47 | 49.62257 | 6.20112 | 1221 ft | 109 kts | 59° |
| 2026-05-07 13:48 | 49.62549 | 6.20896 | 1242 ft | 59 kts | 60° |
| 2026-05-07 13:48 | 49.62728 | 6.21385 | 1228 ft | 50 kts | 60° |
| 2026-05-07 13:48 | 49.62899 | 6.21838 | 1215 ft | 47 kts | 59° |
| 2026-05-07 13:48 | 49.63019 | 6.22129 | 1214 ft | 13 kts | 29° |
| 2026-05-07 13:49 | 49.63085 | 6.22103 | 1218 ft | 9 kts | 330° |
| 2026-05-07 13:49 | 49.63141 | 6.22053 | 1224 ft | 11 kts | 330° |
| 2026-05-07 13:49 | 49.63174 | 6.21962 | 1228 ft | 11 kts | 259° |
| 2026-05-07 13:49 | 49.63213 | 6.21885 | 1228 ft | 10 kts | 325° |
| 2026-05-07 13:50 | 49.63266 | 6.21836 | 1230 ft | 8 kts | 329° |
| 2026-05-07 13:50 | 49.63315 | 6.21788 | 1230 ft | 9 kts | 326° |
| 2026-05-07 13:50 | 49.63361 | 6.21746 | 1230 ft | 4 kts | 330° |
| 2026-05-07 13:50 | 49.63372 | 6.21737 | 1230 ft | 0 kts | 330° |